Waterloo, NY

11:04 PM EDT on August 20, 2014 (GMT -0400)
Oswego County | Change Station
CLOSE
Current Station
Airport
Location: Fulton,
Elevation: 472 ft
Nearby Weather Stations

Elev 472 ft 43.35 °N, 76.38 °W | Updated 10 minutes ago

Mostly Cloudy
Mostly Cloudy
69 °F
Feels Like 69 °F
N
5
Wind Variable Wind from Variable

Today
High -- | Low -- °F
--% Chance of Precip.
Yesterday
High -- | Low -- °F
Precip. -- in
6:19 AM 8:01 PM
Waning Crescent, 17% visible
Pressure 29.95 in
Visibility 3.0 miles
Clouds Mostly Cloudy 400 ft
Dew Point 67 °F
Humidity 93%
Rainfall 0.16 in
Snow Depth Not available.
UV 0 out of 12
Pollen 8.00 out of 12
PM2.5 Good
Flu Activity Not available.
METAR KFZY 210254Z AUTO VRB04KT 3SM BR BKN004 21/19 A2996 RMK AO2 SLP141 60001 T02060194 53000

More Conditions Fewer Conditions

Pressure 29.95 in
Visibility 3.0 miles
Clouds Mostly Cloudy 400 ft
Dew Point 67 °F
Humidity 93%
Rainfall 0.16 in
Snow Depth Not available.
UV 0 out of 12
Pollen 8.00 out of 12
PM2.5 Good
Flu Activity Not available.
METAR KFZY 210254Z AUTO VRB04KT 3SM BR BKN004 21/19 A2996 RMK AO2 SLP141 60001 T02060194 53000

More Conditions Fewer Conditions

10-Day Weather Forecast

Almanac

Astronomy

Aug. 20, 2014 Rise Set
Actual Time 6:19 AM EDT 8:01 PM EDT
Civil Twilight 5:48 AM EDT 8:31 PM EDT
Nautical Twilight 5:12 AM EDT 9:08 PM EDT
Astronomical Twilight 4:32 AM EDT 9:47 PM EDT
Moon 1:54 AM EDT (8/20) 4:47 PM EDT (8/20)
Length of Visible Light 14h 43m
Length of Day
13h 42m
Tomorrow will be 2m 40s shorter.
Waning Crescent, 17% of the Moon is Illuminated
Today
Waning Crescent
Aug 25
New
Sep 2
First Quarter
Sep 8
Full
Sep 15
Last Quarter

Today's Extremes

State Highs State Lows

Community

WunderPhotos

Upload Photos

1,745,842 photos uploaded!

WunderBlogs® & News

By Dr. Jeff Masters
Director of Meteorology, Weather Underground
By Kari Strenfel
Meteorologist, Weather Underground
By Christopher C. Burt
Weather Historian, Weather Underground
August 20, 2014
August 20, 2014
August 20, 2014

Nearby

Air Quality

  Air Quality AQ Index Pollutant
Yesterday Good
PM2.5
Yesterday Good
OZONE
Current Good
PM2.5
Wednesday Good
PM2.5
Wednesday Good
OZONE
Thursday Good
PM2.5
Thursday Good
OZONE

Snow Depth

Station Depth Elevation
No new snow has been reported.

Earthquake Activity

City Distance Mag. Time & Date
No recent earthquake activity has been reported nearby.
Minimum magnitude displayed is 2.5.

Coastal Water Temperatures

Place Temperature
Alexandria Bay, NY 68.0 °F
Ogdensburg, NY 64.9 °F

Nearby Weather Stations